createdAt,value
2018-12-23T00:00:06.282Z,555.5
2018-12-23T00:01:08.728Z,555.3
2018-12-23T00:02:10.892Z,554.9
2018-12-23T00:03:13.062Z,554.3
2018-12-23T00:04:15.206Z,554.5
2018-12-23T00:05:17.344Z,554.8
2018-12-23T00:06:19.818Z,554.6
2018-12-23T00:07:21.984Z,554.5
2018-12-23T00:08:24.156Z,553.7
2018-12-23T00:09:26.322Z,553.7
2018-12-23T00:10:28.753Z,553.1
2018-12-23T00:11:31.184Z,553
2018-12-23T00:12:33.611Z,552.9
2018-12-23T00:13:35.785Z,552.5
2018-12-23T00:14:38.210Z,552.6
2018-12-23T00:15:40.380Z,552.3
2018-12-23T00:16:42.810Z,552.5
2018-12-23T00:17:44.979Z,552.6
2018-12-23T00:18:47.125Z,552.4
2018-12-23T00:19:49.278Z,552.4
2018-12-23T00:20:51.790Z,552.2
2018-12-23T00:21:53.983Z,552.3
2018-12-23T00:22:56.135Z,551.6
2018-12-23T00:23:58.297Z,552.1
2018-12-23T00:25:00.734Z,551.8
2018-12-23T00:26:03.184Z,550.9
2018-12-23T00:27:05.632Z,551.2
2018-12-23T00:28:08.160Z,551.5
2018-12-23T00:29:10.600Z,550.2
2018-12-23T00:30:12.522Z,549.2
2018-12-23T00:31:14.400Z,549.7
2018-12-23T00:32:16.548Z,550.4
2018-12-23T00:33:18.704Z,549.5
2018-12-23T00:34:21.162Z,549.5
2018-12-23T00:35:23.590Z,549.3
2018-12-23T00:36:25.754Z,549.8
2018-12-23T00:37:28.183Z,549.4
2018-12-23T00:38:30.332Z,548.9
2018-12-23T00:39:32.744Z,549.7
2018-12-23T00:40:34.904Z,548.8
2018-12-23T00:41:38.372Z,548.8
2018-12-23T00:42:40.808Z,549.3
2018-12-23T00:43:42.716Z,548.8
2018-12-23T00:44:45.142Z,547.4
2018-12-23T00:45:47.598Z,547.2
2018-12-23T00:46:50.019Z,547.5
2018-12-23T00:47:52.462Z,546.9
2018-12-23T00:48:54.894Z,546.4
2018-12-23T00:49:57.332Z,547.7
2018-12-23T00:50:59.760Z,547.3
2018-12-23T00:52:01.904Z,546.8
2018-12-23T00:53:04.073Z,547
2018-12-23T00:54:06.494Z,547.2
2018-12-23T00:55:08.927Z,547.3
2018-12-23T00:56:10.849Z,546.9
2018-12-23T00:57:13.282Z,546.9
2018-12-23T00:58:15.727Z,546.7
2018-12-23T00:59:17.907Z,547
2018-12-23T01:00:19.524Z,547.3
2018-12-23T01:01:21.681Z,546.9
2018-12-23T01:02:24.110Z,546.4
2018-12-23T01:03:26.265Z,546.2
2018-12-23T01:04:28.412Z,546.7
2018-12-23T01:05:30.492Z,547
2018-12-23T01:06:32.924Z,547.1
2018-12-23T01:07:35.074Z,546.9
2018-12-23T01:08:37.498Z,547.4
2018-12-23T01:09:40.045Z,547.5
2018-12-23T01:10:42.473Z,547.5
2018-12-23T01:11:44.904Z,547.1
2018-12-23T01:12:46.810Z,547
2018-12-23T01:13:48.974Z,546.4
2018-12-23T01:14:51.400Z,546.5
2018-12-23T01:15:53.560Z,546.1
2018-12-23T01:16:55.703Z,546
2018-12-23T01:17:57.314Z,545.5
2018-12-23T01:18:59.201Z,545.5
2018-12-23T01:20:01.648Z,545.2
2018-12-23T01:21:03.232Z,544.6
2018-12-23T01:22:05.111Z,544.6
2018-12-23T01:23:07.319Z,544.4
2018-12-23T01:24:09.467Z,544.6
2018-12-23T01:25:11.909Z,543.8
2018-12-23T01:26:14.326Z,544.5
2018-12-23T01:27:16.494Z,544
2018-12-23T01:28:18.957Z,543.8
2018-12-23T01:29:21.389Z,543.9
2018-12-23T01:30:23.805Z,544.2
2018-12-23T01:31:26.226Z,544.4
2018-12-23T01:32:28.356Z,544
2018-12-23T01:33:30.509Z,544
2018-12-23T01:35:38.981Z,543.3
2018-12-23T01:36:41.422Z,543.4
2018-12-23T01:37:43.572Z,543.1
2018-12-23T01:38:45.474Z,543
2018-12-23T01:39:47.903Z,542.8
2018-12-23T01:40:50.353Z,542.8
2018-12-23T01:41:52.794Z,542.6
2018-12-23T01:42:55.223Z,542.3
2018-12-23T01:43:57.388Z,541.9
2018-12-23T01:44:59.805Z,541.8
2018-12-23T01:46:01.417Z,542
2018-12-23T01:47:03.582Z,541.8
2018-12-23T01:48:06.037Z,541.7
2018-12-23T01:49:08.497Z,541.6
2018-12-23T01:50:10.998Z,542.1
2018-12-23T01:51:13.416Z,541.9
2018-12-23T01:52:15.584Z,541.7
2018-12-23T01:53:18.013Z,541.6
2018-12-23T01:54:20.452Z,541.2
2018-12-23T01:55:22.601Z,541.4
2018-12-23T01:56:25.013Z,541.2
2018-12-23T01:57:27.460Z,541.3
2018-12-23T01:58:29.917Z,541
2018-12-23T01:59:32.095Z,541.1
2018-12-23T02:00:34.263Z,541
2018-12-23T02:01:36.151Z,540.9
2018-12-23T02:02:38.582Z,541.3
2018-12-23T02:03:41.015Z,541.5
2018-12-23T02:04:43.165Z,541.6
2018-12-23T02:06:50.307Z,541.7
2018-12-23T02:07:52.454Z,541.3
2018-12-23T02:08:54.594Z,541.6
2018-12-23T02:09:56.719Z,541.6
2018-12-23T02:10:58.961Z,542.3
2018-12-23T02:12:01.385Z,541.4
2018-12-23T02:13:03.824Z,541.5
2018-12-23T02:14:06.264Z,542.1
2018-12-23T02:15:08.161Z,541.8
2018-12-23T02:16:10.341Z,542.3
2018-12-23T02:17:12.768Z,542.3
2018-12-23T02:18:15.192Z,542.1
2018-12-23T02:19:17.342Z,542
2018-12-23T02:20:19.764Z,542.1
2018-12-23T02:21:22.194Z,542.1
2018-12-23T02:22:24.620Z,542.3
2018-12-23T02:23:26.786Z,542.7
2018-12-23T02:24:28.950Z,542.5
2018-12-23T02:25:31.398Z,542.6
2018-12-23T02:26:33.550Z,543.1
2018-12-23T02:27:35.991Z,542.6
2018-12-23T02:28:38.406Z,542.7
2018-12-23T02:29:40.840Z,542.3
2018-12-23T02:30:43.264Z,542
2018-12-23T02:31:45.715Z,542
2018-12-23T02:32:48.147Z,541.5
2018-12-23T02:33:50.574Z,541.5
2018-12-23T02:34:52.938Z,541.6
2018-12-23T02:37:00.058Z,541.3
2018-12-23T02:38:02.494Z,540.9
2018-12-23T02:39:04.924Z,541.3
2018-12-23T02:40:07.186Z,541
2018-12-23T02:41:09.100Z,540.8
2018-12-23T02:42:11.277Z,540
2018-12-23T02:43:13.734Z,540.6
2018-12-23T02:44:15.895Z,540.1
2018-12-23T02:45:18.335Z,539.9
2018-12-23T02:46:20.489Z,540
2018-12-23T02:47:22.915Z,539.7
2018-12-23T02:48:25.052Z,540.3
2018-12-23T02:49:27.479Z,539.9
2018-12-23T02:50:29.905Z,539.4
2018-12-23T02:51:32.057Z,539.6
2018-12-23T02:52:34.222Z,540.7
2018-12-23T02:53:36.655Z,540.8
2018-12-23T02:54:38.567Z,540.7
2018-12-23T02:55:41.016Z,540.5
2018-12-23T02:56:43.464Z,540.8
2018-12-23T02:57:45.624Z,540.7
2018-12-23T02:58:48.074Z,540.1
2018-12-23T02:59:50.494Z,541.1
2018-12-23T03:00:52.672Z,541.2
2018-12-23T03:01:54.834Z,541.5
2018-12-23T03:02:57.263Z,541.8
2018-12-23T03:03:59.698Z,542
2018-12-23T03:05:02.126Z,541.9
2018-12-23T03:07:09.541Z,541.9
2018-12-23T03:08:11.979Z,542.1
2018-12-23T03:09:14.134Z,542.4
2018-12-23T03:10:16.036Z,542.6
2018-12-23T03:11:18.541Z,542.9
2018-12-23T03:12:20.421Z,542.7
2018-12-23T03:13:22.583Z,542.9
2018-12-23T03:14:24.787Z,542.7
2018-12-23T03:15:26.383Z,542.2
2018-12-23T03:16:28.286Z,542.4
2018-12-23T03:17:30.718Z,541.9
2018-12-23T03:18:33.163Z,541.8
2018-12-23T03:19:35.610Z,541.5
2018-12-23T03:20:38.164Z,541.7
2018-12-23T03:21:40.591Z,541.8
2018-12-23T03:22:43.017Z,541.1
2018-12-23T03:23:45.455Z,541.2
2018-12-23T03:24:47.955Z,540.7
2018-12-23T03:25:50.393Z,541.1
2018-12-23T03:26:52.532Z,541.1
2018-12-23T03:27:54.677Z,540.7
2018-12-23T03:28:57.112Z,541.1
2018-12-23T03:29:59.290Z,541.3
2018-12-23T03:31:01.853Z,541.7
2018-12-23T03:32:03.772Z,542
2018-12-23T03:33:06.234Z,541.5
2018-12-23T03:34:08.685Z,541.9
2018-12-23T03:35:10.846Z,542.3
2018-12-23T03:37:18.260Z,542.3
2018-12-23T03:38:19.868Z,541.9
2018-12-23T03:39:22.312Z,541.8
2018-12-23T03:40:24.478Z,541.8
2018-12-23T03:41:26.902Z,541.9
2018-12-23T03:42:29.044Z,542.2
2018-12-23T03:43:30.942Z,542.4
2018-12-23T03:44:33.381Z,542.3
2018-12-23T03:45:35.812Z,542.4
2018-12-23T03:46:38.254Z,542.4
2018-12-23T03:47:40.693Z,542
2018-12-23T03:48:43.114Z,542.3
2018-12-23T03:49:45.542Z,542.3
2018-12-23T03:50:47.692Z,542.5
2018-12-23T03:51:49.923Z,543
2018-12-23T03:52:52.357Z,542.8
2018-12-23T03:53:54.784Z,543.1
2018-12-23T03:54:57.214Z,543
2018-12-23T03:55:59.450Z,542.7
2018-12-23T03:57:01.891Z,542.4
2018-12-23T03:58:04.046Z,542.4
2018-12-23T03:59:06.492Z,542.5
2018-12-23T04:00:08.929Z,542.2
2018-12-23T04:01:11.112Z,542.6
2018-12-23T04:02:13.252Z,542
2018-12-23T04:03:15.723Z,542.2
2018-12-23T04:04:18.145Z,541.2
2018-12-23T04:05:19.997Z,541
2018-12-23T04:07:26.870Z,541.2
2018-12-23T04:08:29.032Z,541.4
2018-12-23T04:09:31.181Z,541.3
2018-12-23T04:10:33.351Z,540.9
2018-12-23T04:11:35.521Z,540.7
2018-12-23T04:12:37.960Z,540.8
2018-12-23T04:13:40.392Z,540.5
2018-12-23T04:14:42.538Z,540.5
2018-12-23T04:15:44.961Z,541.1
2018-12-23T04:16:47.130Z,541.1
2018-12-23T04:17:49.291Z,540.6
2018-12-23T04:18:51.730Z,541
2018-12-23T04:19:53.902Z,540.5
2018-12-23T04:20:56.060Z,540.7
2018-12-23T04:21:58.489Z,541
2018-12-23T04:23:00.654Z,540.8
2018-12-23T04:24:03.105Z,540.9
2018-12-23T04:25:05.519Z,541.2
2018-12-23T04:26:07.956Z,540.1
2018-12-23T04:27:10.135Z,540.8
2018-12-23T04:28:12.318Z,540.7
2018-12-23T04:29:14.474Z,540.1
2018-12-23T04:30:16.910Z,540.4
2018-12-23T04:31:19.332Z,540.1
2018-12-23T04:32:21.494Z,539.7
2018-12-23T04:33:23.914Z,539.3
2018-12-23T04:34:26.338Z,539.5
2018-12-23T04:35:28.761Z,539.4
2018-12-23T04:37:36.033Z,539.6
2018-12-23T04:38:38.454Z,539.5
2018-12-23T04:39:40.882Z,539.1
2018-12-23T04:40:43.333Z,539.3
2018-12-23T04:41:45.458Z,539.5
2018-12-23T04:42:47.610Z,539.6
2018-12-23T04:43:50.067Z,538.9
2018-12-23T04:44:52.483Z,539
2018-12-23T04:45:54.904Z,539.3
2018-12-23T04:46:57.335Z,538.8
2018-12-23T04:47:59.472Z,539.3
2018-12-23T04:49:01.627Z,538.9
2018-12-23T04:50:04.054Z,538.9
2018-12-23T04:51:06.500Z,538.9
2018-12-23T04:52:08.939Z,538.8
2018-12-23T04:53:10.833Z,538.4
2018-12-23T04:54:13.276Z,538.5
2018-12-23T04:55:15.704Z,538.4
2018-12-23T04:56:18.151Z,538.9
2018-12-23T04:57:20.014Z,538.7
2018-12-23T04:58:22.452Z,538.9
2018-12-23T04:59:24.598Z,539.1
2018-12-23T05:00:26.773Z,539.4
2018-12-23T05:01:29.201Z,539.4
2018-12-23T05:02:31.361Z,539.1
2018-12-23T05:04:39.450Z,539.7
2018-12-23T05:05:41.883Z,539.7
2018-12-23T05:06:45.593Z,539.8
2018-12-23T05:07:48.013Z,539.4
2018-12-23T05:08:50.185Z,539.7
2018-12-23T05:09:52.614Z,539.8
2018-12-23T05:10:54.755Z,540.1
2018-12-23T05:11:56.943Z,540.1
2018-12-23T05:12:59.381Z,539.9
2018-12-23T05:14:01.847Z,539.9
2018-12-23T05:15:04.207Z,539.3
2018-12-23T05:16:06.613Z,539.5
2018-12-23T05:17:09.051Z,539.1
2018-12-23T05:18:10.948Z,539.2
2018-12-23T05:19:13.167Z,539.2
2018-12-23T05:20:15.045Z,539
2018-12-23T05:21:17.205Z,538.9
2018-12-23T05:22:19.631Z,538.4
2018-12-23T05:23:21.769Z,538.5
2018-12-23T05:24:24.189Z,538.4
2018-12-23T05:25:26.614Z,537.8
2018-12-23T05:26:28.769Z,537.3
2018-12-23T05:27:31.201Z,537.4
2018-12-23T05:28:33.084Z,537.2
2018-12-23T05:29:35.519Z,537.1
2018-12-23T05:30:37.948Z,536.6
2018-12-23T05:31:40.183Z,537.3
2018-12-23T05:32:42.361Z,537
2018-12-23T05:33:44.782Z,537.2
2018-12-23T05:34:46.675Z,537.3
2018-12-23T05:35:49.106Z,537.4
2018-12-23T05:37:55.689Z,537.9
2018-12-23T05:38:58.173Z,537.6
2018-12-23T05:40:00.381Z,537.8
2018-12-23T05:41:02.549Z,537.4
2018-12-23T05:42:04.723Z,537.5
2018-12-23T05:43:07.163Z,537.5
2018-12-23T05:44:09.610Z,537.1
2018-12-23T05:45:11.757Z,537.1
2018-12-23T05:46:13.648Z,537.2
2018-12-23T05:47:15.799Z,537.7
2018-12-23T05:48:18.229Z,537.5
2018-12-23T05:49:20.383Z,537.1
2018-12-23T05:50:22.238Z,537
2018-12-23T05:51:24.683Z,536.7
2018-12-23T05:52:27.110Z,536.6
2018-12-23T05:53:29.251Z,536.6
2018-12-23T05:54:31.403Z,536.5
2018-12-23T05:55:33.569Z,536.5
2018-12-23T05:56:36.005Z,536.3
2018-12-23T05:57:38.451Z,536.4
2018-12-23T05:58:40.313Z,536
2018-12-23T05:59:42.183Z,535.9
2018-12-23T06:00:43.795Z,536.3
2018-12-23T06:01:45.939Z,535.8
2018-12-23T06:02:48.392Z,535.9
2018-12-23T06:03:50.833Z,535.5
2018-12-23T06:04:52.978Z,536.2
2018-12-23T06:05:55.131Z,535.9
2018-12-23T06:08:02.288Z,535.5
2018-12-23T06:09:06.437Z,535.6
2018-12-23T06:10:08.627Z,535.2
2018-12-23T06:11:10.771Z,535.1
2018-12-23T06:12:12.376Z,535.2
2018-12-23T06:13:14.825Z,535.4
2018-12-23T06:14:17.272Z,535.2
2018-12-23T06:15:19.694Z,535.6
2018-12-23T06:16:21.863Z,535.5
2018-12-23T06:17:24.289Z,535.8
2018-12-23T06:18:26.448Z,535.2
2018-12-23T06:19:28.908Z,535.2
2018-12-23T06:20:31.337Z,534.7
2018-12-23T06:21:32.972Z,534.8
2018-12-23T06:22:34.579Z,535
2018-12-23T06:23:36.439Z,535.3
2018-12-23T06:24:38.873Z,535.2
2018-12-23T06:25:41.066Z,534.7
2018-12-23T06:26:43.501Z,534.8
2018-12-23T06:27:45.930Z,534.6
2018-12-23T06:28:48.358Z,534.8
2018-12-23T06:29:50.783Z,534.9
2018-12-23T06:30:53.212Z,535.4
2018-12-23T06:31:55.637Z,535.3
2018-12-23T06:32:58.068Z,535.1
2018-12-23T06:34:00.509Z,535
2018-12-23T06:35:02.658Z,535
2018-12-23T06:36:05.092Z,535.2
2018-12-23T06:38:12.251Z,535.1
2018-12-23T06:39:14.693Z,535.2
2018-12-23T06:40:17.142Z,535
2018-12-23T06:41:19.583Z,535.5
2018-12-23T06:42:21.463Z,535.4
2018-12-23T06:43:23.902Z,535.2
2018-12-23T06:44:26.341Z,535.3
2018-12-23T06:45:28.488Z,535.2
2018-12-23T06:46:30.654Z,535
2018-12-23T06:47:33.081Z,534.9
2018-12-23T06:48:37.553Z,535.4
2018-12-23T06:49:39.982Z,535.8
2018-12-23T06:50:42.501Z,535.6
2018-12-23T06:51:44.952Z,535.8
2018-12-23T06:52:47.387Z,535.8
2018-12-23T06:53:49.263Z,535.7
2018-12-23T06:54:52.744Z,536.2
2018-12-23T06:55:55.175Z,535.7
2018-12-23T06:56:57.305Z,535.5
2018-12-23T06:57:59.733Z,535.7
2018-12-23T06:59:02.162Z,535.4
2018-12-23T07:00:03.782Z,535.7
2018-12-23T07:01:05.654Z,535.9
2018-12-23T07:02:08.116Z,535.8
2018-12-23T07:03:10.550Z,535.9
2018-12-23T07:04:12.526Z,535.6
2018-12-23T07:05:14.950Z,535.9
2018-12-23T07:06:17.107Z,535.5
2018-12-23T07:07:20.520Z,535.3
2018-12-23T07:08:22.972Z,535.2
2018-12-23T07:09:25.130Z,534.9
2018-12-23T07:10:27.298Z,534.8
2018-12-23T07:11:29.737Z,534.8
2018-12-23T07:12:32.170Z,535
2018-12-23T07:13:34.619Z,534.8
2018-12-23T07:14:37.051Z,534.7
2018-12-23T07:15:39.233Z,535
2018-12-23T07:16:41.695Z,534.4
2018-12-23T07:17:43.851Z,534.2
2018-12-23T07:18:46.294Z,533.9
2018-12-23T07:19:48.455Z,534
2018-12-23T07:20:50.883Z,534
2018-12-23T07:21:53.307Z,534.1
2018-12-23T07:22:55.752Z,534.2
2018-12-23T07:23:58.181Z,534.3
2018-12-23T07:25:00.350Z,534.6
2018-12-23T07:26:02.783Z,534.4
2018-12-23T07:27:04.941Z,534.1
2018-12-23T07:28:07.367Z,533.8
2018-12-23T07:29:09.247Z,533
2018-12-23T07:30:11.702Z,533
2018-12-23T07:31:13.855Z,532.6
2018-12-23T07:32:16.297Z,532.6
2018-12-23T07:33:18.738Z,532.8
2018-12-23T07:34:21.159Z,533
2018-12-23T07:35:23.312Z,533.2
2018-12-23T07:36:25.185Z,533.2
2018-12-23T07:38:31.771Z,532
2018-12-23T07:39:33.668Z,532.6
2018-12-23T07:40:36.102Z,532.4
2018-12-23T07:41:38.255Z,532.5
2018-12-23T07:42:40.407Z,532.8
2018-12-23T07:43:42.837Z,533.4
2018-12-23T07:44:45.261Z,533.4
2018-12-23T07:45:47.435Z,533.7
2018-12-23T07:46:49.877Z,533.5
2018-12-23T07:47:52.086Z,534
2018-12-23T07:48:53.962Z,533.8
2018-12-23T07:49:56.120Z,533.2
2018-12-23T07:50:58.559Z,533.5
2018-12-23T07:52:00.999Z,533.3
2018-12-23T07:53:03.154Z,532.9
2018-12-23T07:54:05.575Z,533.4
2018-12-23T07:55:07.733Z,533.4
2018-12-23T07:56:10.181Z,533.3
2018-12-23T07:57:12.364Z,532.9
2018-12-23T07:58:14.823Z,532.8
2018-12-23T07:59:17.273Z,532.9
2018-12-23T08:00:18.864Z,532.5
2018-12-23T08:01:20.725Z,532.4
2018-12-23T08:02:23.155Z,532.1
2018-12-23T08:03:25.306Z,532.5
2018-12-23T08:04:27.474Z,532.3
2018-12-23T08:05:29.637Z,532.2
2018-12-23T08:06:31.787Z,532
2018-12-23T08:08:39.227Z,532.3
2018-12-23T08:09:41.655Z,532.8
2018-12-23T08:10:44.092Z,532.8
2018-12-23T08:11:46.541Z,532.7
2018-12-23T08:12:49.073Z,533.4
2018-12-23T08:13:51.250Z,533.5
2018-12-23T08:14:53.675Z,533.3
2018-12-23T08:15:55.854Z,533.3
2018-12-23T08:16:58.302Z,533.3
2018-12-23T08:18:00.463Z,533.6
2018-12-23T08:19:02.631Z,533.4
2018-12-23T08:20:05.063Z,533.2
2018-12-23T08:22:15.833Z,533.5
2018-12-23T08:23:18.267Z,533
2018-12-23T08:24:20.682Z,532.7
2018-12-23T08:25:23.110Z,532.8
2018-12-23T08:26:25.064Z,532.9
2018-12-23T08:27:27.496Z,532.4
2018-12-23T08:28:29.931Z,532.3
2018-12-23T08:29:32.166Z,532.2
2018-12-23T08:30:34.631Z,532
2018-12-23T08:31:36.499Z,532.1
2018-12-23T08:32:38.946Z,532.3
2018-12-23T08:33:41.082Z,532.5
2018-12-23T08:34:43.221Z,532.6
2018-12-23T08:35:45.460Z,532.8
2018-12-23T08:36:47.085Z,532.7
2018-12-23T08:37:49.604Z,532.7
2018-12-23T08:38:51.491Z,532.8
2018-12-23T08:39:53.923Z,533.5
2018-12-23T08:40:56.365Z,532.8
2018-12-23T08:41:58.793Z,533
2018-12-23T08:43:00.781Z,533.3
2018-12-23T08:44:02.678Z,533.2
2018-12-23T08:45:04.840Z,533.3
2018-12-23T08:46:07.263Z,532.8
2018-12-23T08:47:09.423Z,532.9
2018-12-23T08:48:11.570Z,532.7
2018-12-23T08:49:13.995Z,532.7
2018-12-23T08:50:16.441Z,533
2018-12-23T08:51:18.870Z,532.9
2018-12-23T08:52:21.302Z,533.2
2018-12-23T08:53:23.476Z,532.9
2018-12-23T08:54:25.918Z,533.3
2018-12-23T08:55:28.417Z,532.9
2018-12-23T08:56:30.859Z,532.9
2018-12-23T08:57:33.020Z,532.3
2018-12-23T08:58:35.163Z,532.9
2018-12-23T08:59:37.602Z,532.5
2018-12-23T09:00:39.758Z,532.9
2018-12-23T09:01:42.010Z,532.8
2018-12-23T09:02:43.621Z,532.9
2018-12-23T09:03:45.800Z,533
2018-12-23T09:04:48.248Z,533.2
2018-12-23T09:05:50.688Z,533.3
2018-12-23T09:06:52.887Z,533.4
2018-12-23T09:07:55.326Z,533.6
2018-12-23T09:08:57.749Z,533.4
2018-12-23T09:10:00.186Z,533.6
2018-12-23T09:11:02.431Z,533.3
2018-12-23T09:12:04.618Z,533.4
2018-12-23T09:13:07.134Z,533.2
2018-12-23T09:14:09.554Z,533.1
2018-12-23T09:15:11.740Z,533.2
2018-12-23T09:16:13.901Z,533.3
2018-12-23T09:17:16.061Z,533.2
2018-12-23T09:19:22.934Z,533.7
2018-12-23T09:20:25.095Z,533.4
2018-12-23T09:21:27.594Z,533.5
2018-12-23T09:22:29.790Z,533.7
2018-12-23T09:23:32.275Z,533.8
2018-12-23T09:24:34.424Z,534
2018-12-23T09:25:36.570Z,533.7
2018-12-23T09:26:38.715Z,534.1
2018-12-23T09:27:40.863Z,533.9
2018-12-23T09:28:43.032Z,534
2018-12-23T09:29:45.208Z,533.9
2018-12-23T09:30:47.671Z,533.9
2018-12-23T09:31:49.829Z,534.4
2018-12-23T09:32:52.014Z,534.3
2018-12-23T09:33:53.895Z,534.3
2018-12-23T09:34:56.329Z,534.3
2018-12-23T09:35:58.491Z,534.4
2018-12-23T09:37:00.930Z,534.4
2018-12-23T09:38:03.813Z,535.1
2018-12-23T09:39:06.261Z,535.1
2018-12-23T09:40:08.138Z,534.9
2018-12-23T09:41:10.580Z,534.9
2018-12-23T09:42:12.761Z,535.2
2018-12-23T09:43:16.343Z,535.5
2018-12-23T09:44:18.779Z,535.4
2018-12-23T09:45:21.205Z,536.1
2018-12-23T09:46:23.656Z,535.9
2018-12-23T09:47:26.122Z,536.1
2018-12-23T09:48:28.611Z,536.4
2018-12-23T09:49:30.790Z,536.6
2018-12-23T09:50:33.250Z,536.5
2018-12-23T09:51:35.661Z,536.5
2018-12-23T09:52:37.537Z,536.7
2018-12-23T09:53:39.984Z,536.7
2018-12-23T09:54:42.430Z,536.6
2018-12-23T09:55:44.596Z,537.1
2018-12-23T09:56:46.750Z,536.9
2018-12-23T09:57:49.182Z,537
2018-12-23T09:58:51.079Z,536.7
2018-12-23T09:59:52.952Z,536.8
2018-12-23T10:00:55.377Z,536.8
2018-12-23T10:01:57.818Z,536.6
2018-12-23T10:03:00.083Z,536.6
2018-12-23T10:04:02.505Z,536.9
2018-12-23T10:05:04.651Z,536.4
2018-12-23T10:06:06.897Z,536.6
2018-12-23T10:07:09.410Z,536.8
2018-12-23T10:08:12.475Z,536.7
2018-12-23T10:09:14.914Z,536.7
2018-12-23T10:10:17.347Z,536.9
2018-12-23T10:11:19.781Z,537.1
2018-12-23T10:12:22.213Z,537
2018-12-23T10:13:24.643Z,537.2
2018-12-23T10:14:27.072Z,537.2
2018-12-23T10:15:29.223Z,537.4
2018-12-23T10:16:31.399Z,537.7
2018-12-23T10:17:33.853Z,537.4
2018-12-23T10:18:36.007Z,537.2
2018-12-23T10:19:38.430Z,537.4
2018-12-23T10:20:40.881Z,537.4
2018-12-23T10:21:43.328Z,537.4
2018-12-23T10:22:45.748Z,537.7
2018-12-23T10:23:47.921Z,537.8
2018-12-23T10:24:50.384Z,538.5
2018-12-23T10:25:52.543Z,538.4
2018-12-23T10:26:54.965Z,538.9
2018-12-23T10:27:57.409Z,538.8
2018-12-23T10:28:59.885Z,538.6
2018-12-23T10:30:02.321Z,538.9
2018-12-23T10:31:04.754Z,538.6
2018-12-23T10:32:06.628Z,539
2018-12-23T10:33:09.057Z,539
2018-12-23T10:34:11.511Z,539.4
2018-12-23T10:35:13.690Z,539.7
2018-12-23T10:36:16.124Z,539.2
2018-12-23T10:37:18.548Z,539.4
2018-12-23T10:38:20.714Z,539.7
2018-12-23T10:39:22.884Z,540
2018-12-23T10:40:25.059Z,539.7
2018-12-23T10:41:26.924Z,539.8
2018-12-23T10:42:29.354Z,539.7
2018-12-23T10:43:31.790Z,539.6
2018-12-23T10:44:34.230Z,540.4
2018-12-23T10:45:36.680Z,540.1
2018-12-23T10:46:39.126Z,540.3
2018-12-23T10:47:41.562Z,540.5
2018-12-23T10:48:43.742Z,541.2
2018-12-23T10:49:45.656Z,541.3
2018-12-23T10:50:48.098Z,541.2
2018-12-23T10:51:50.530Z,541.6
2018-12-23T10:52:52.698Z,541.8
2018-12-23T10:53:55.145Z,541.9
2018-12-23T10:54:57.579Z,542.4
2018-12-23T10:56:00.081Z,542.3
2018-12-23T10:57:02.223Z,542.8
2018-12-23T10:58:04.673Z,543.1
2018-12-23T10:59:06.832Z,542.9
2018-12-23T11:00:09.292Z,543.1
2018-12-23T11:01:11.478Z,543.4
2018-12-23T11:02:15.947Z,543.8
2018-12-23T11:03:18.404Z,543.8
2018-12-23T11:04:20.558Z,544.5
2018-12-23T11:05:22.706Z,544.3
2018-12-23T11:06:25.136Z,544.4
2018-12-23T11:07:27.305Z,544.5
2018-12-23T11:08:29.449Z,544.6
2018-12-23T11:09:31.894Z,545.2
2018-12-23T11:10:34.059Z,545
2018-12-23T11:11:36.284Z,545.1
2018-12-23T11:12:38.722Z,545.2
2018-12-23T11:13:41.154Z,545.4
2018-12-23T11:14:43.327Z,545.4
2018-12-23T11:15:49.878Z,545.6
2018-12-23T11:16:57.852Z,546.2
2018-12-23T11:18:01.045Z,546.6
2018-12-23T11:19:03.211Z,546.1
2018-12-23T11:20:05.439Z,546.2
2018-12-23T11:21:07.606Z,546.5
2018-12-23T11:22:09.763Z,546.4
2018-12-23T11:23:12.192Z,546.8
2018-12-23T11:24:14.333Z,546.5
2018-12-23T11:25:16.242Z,546.9
2018-12-23T11:26:18.148Z,546.7
2018-12-23T11:27:20.610Z,546.7
2018-12-23T11:28:22.495Z,547.1
2018-12-23T11:29:24.652Z,547.5
2018-12-23T11:30:27.093Z,547.3
2018-12-23T11:31:28.984Z,547.8
2018-12-23T11:32:31.416Z,547.7
2018-12-23T11:33:33.305Z,547.9
2018-12-23T11:34:35.467Z,548.5
2018-12-23T11:35:37.893Z,548.8
2018-12-23T11:36:40.386Z,549.4
2018-12-23T11:37:42.582Z,549.7
2018-12-23T11:38:45.008Z,549.5
2018-12-23T11:39:47.171Z,549.7
2018-12-23T11:40:49.607Z,549.8
2018-12-23T11:41:52.042Z,549.7
2018-12-23T11:42:53.913Z,550
2018-12-23T11:43:56.256Z,549.9
2018-12-23T11:44:58.389Z,550.4
2018-12-23T11:46:00.566Z,550.3
2018-12-23T11:47:02.720Z,550.5
2018-12-23T11:48:05.151Z,550.5
2018-12-23T11:49:07.594Z,550.8
2018-12-23T11:50:09.749Z,551.3
2018-12-23T11:51:12.193Z,550.8
2018-12-23T11:52:14.435Z,550.5
2018-12-23T11:53:16.322Z,551.1
2018-12-23T11:54:18.461Z,551.2
2018-12-23T11:55:20.911Z,551.2
2018-12-23T11:56:23.353Z,550.5
2018-12-23T11:57:25.507Z,551.1
2018-12-23T11:58:27.692Z,551.8
2018-12-23T11:59:30.116Z,551.5
2018-12-23T12:00:32.263Z,551.3
2018-12-23T12:01:34.743Z,550.9
2018-12-23T12:02:36.900Z,551.2
2018-12-23T12:03:39.063Z,551.2
2018-12-23T12:04:41.510Z,551.7
2018-12-23T12:05:43.970Z,551.6
2018-12-23T12:06:45.873Z,551.5
2018-12-23T12:07:48.331Z,551.4
2018-12-23T12:08:50.779Z,551.6
2018-12-23T12:09:53.211Z,551.3
2018-12-23T12:10:55.652Z,551.4
2018-12-23T12:11:57.794Z,551.6
2018-12-23T12:13:00.225Z,551.5
2018-12-23T12:14:02.108Z,551.9
2018-12-23T12:15:04.573Z,552.1
2018-12-23T12:16:07.000Z,552.5
2018-12-23T12:17:09.443Z,552.4
2018-12-23T12:18:11.592Z,552.6
2018-12-23T12:19:14.025Z,552.7
2018-12-23T12:20:16.204Z,553.6
2018-12-23T12:21:18.643Z,553.4
2018-12-23T12:22:20.836Z,553.5
2018-12-23T12:23:23.276Z,553.5
2018-12-23T12:24:25.454Z,553.7
2018-12-23T12:25:27.102Z,553.1
2018-12-23T12:26:29.562Z,553.9
2018-12-23T12:27:31.755Z,553.8
2018-12-23T12:28:34.194Z,553.9
2018-12-23T12:29:36.632Z,553.5
2018-12-23T12:30:39.074Z,553.6
2018-12-23T12:31:41.238Z,553.5
2018-12-23T12:32:43.141Z,553.8
2018-12-23T12:33:45.028Z,554.3
2018-12-23T12:34:47.186Z,554.4
2018-12-23T12:35:49.626Z,554.6
2018-12-23T12:36:51.780Z,554.5
2018-12-23T12:37:54.323Z,555.3
2018-12-23T12:38:56.747Z,555.3
2018-12-23T12:39:59.188Z,555.5
2018-12-23T12:41:01.620Z,555.8
2018-12-23T12:42:04.069Z,555.9
2018-12-23T12:43:05.925Z,556.2
2018-12-23T12:44:07.793Z,556
2018-12-23T12:45:09.961Z,556.3
2018-12-23T12:46:12.124Z,556.2
2018-12-23T12:47:14.553Z,556.8
2018-12-23T12:48:17.003Z,556.7
2018-12-23T12:49:19.161Z,556.7
2018-12-23T12:50:21.600Z,556.9
2018-12-23T12:51:24.035Z,557
2018-12-23T12:52:26.472Z,557.3
2018-12-23T12:53:28.641Z,557.6
2018-12-23T12:54:31.064Z,557.1
2018-12-23T12:55:33.517Z,557.5
2018-12-23T12:56:35.717Z,557.5
2018-12-23T12:57:38.160Z,557.1
2018-12-23T12:58:40.071Z,558
2018-12-23T12:59:42.507Z,558.1
2018-12-23T13:00:44.928Z,558.4
2018-12-23T13:01:47.395Z,558.4
2018-12-23T13:02:49.564Z,558.2
2018-12-23T13:03:51.494Z,558.1
2018-12-23T13:04:53.660Z,558.6
2018-12-23T13:05:56.103Z,558.5
2018-12-23T13:06:58.239Z,558.6
2018-12-23T13:08:00.400Z,558.5
2018-12-23T13:09:02.857Z,559.2
2018-12-23T13:10:04.997Z,559.3
2018-12-23T13:11:07.431Z,559.1
2018-12-23T13:12:09.599Z,559.3
2018-12-23T13:13:12.055Z,559.1
2018-12-23T13:14:14.485Z,559.8
2018-12-23T13:15:16.677Z,560.1
2018-12-23T13:16:18.832Z,559.5
2018-12-23T13:17:21.284Z,559.8
2018-12-23T13:18:23.724Z,560.6
2018-12-23T13:19:25.893Z,560.2
2018-12-23T13:20:30.051Z,559.9
2018-12-23T13:21:32.235Z,559.8
2018-12-23T13:22:34.676Z,560
2018-12-23T13:23:36.841Z,560.2
2018-12-23T13:24:38.740Z,560.4
2018-12-23T13:25:40.925Z,560.5
2018-12-23T13:26:43.359Z,560.3
2018-12-23T13:27:45.513Z,560.4
2018-12-23T13:28:47.947Z,560.3
2018-12-23T13:29:50.403Z,560.4
2018-12-23T13:30:52.846Z,560.3
2018-12-23T13:31:55.291Z,560.6
2018-12-23T13:32:57.746Z,561.1
2018-12-23T13:34:00.195Z,560.9
2018-12-23T13:35:02.378Z,560.9
2018-12-23T13:36:04.820Z,561.3
2018-12-23T13:37:06.959Z,561.4
2018-12-23T13:38:09.389Z,561.5
2018-12-23T13:39:11.554Z,561.8
2018-12-23T13:40:13.733Z,562.1
2018-12-23T13:41:16.176Z,562.1
2018-12-23T13:42:18.639Z,561.9